Time;durP1;ratioP1;P1;durP2;ratioP2;P2;SDS_P1;SDS_P2;PMS_P1;PMS_P2;Temp;Humidity;BMP_temperature;BMP_pressure;BME280_temperature;BME280_humidity;BME280_pressure;Samples;Min_cycle;Max_cycle;Signal;HPM_P1;HPM_P2
2023/09/20 00:00:32;;;;;;;5.35;1.80;;;;;;;-148.88;92.41;-17125.47;5018541;28;20048;-85
2023/09/20 00:02:58;;;;;;;4.10;1.90;;;;;;;-148.88;93.28;-17125.47;5036842;28;20061;-87
2023/09/20 00:05:23;;;;;;;5.88;1.90;;;;;;;-148.88;93.82;-17125.47;5036845;28;20099;-86
2023/09/20 00:07:54;;;;;;;6.88;1.63;;;;;;;-148.88;93.53;-17125.47;5019088;28;20079;-86
2023/09/20 00:10:20;;;;;;;5.72;1.95;;;;;;;-148.88;93.37;-17125.47;5036608;28;20045;-86
2023/09/20 00:12:45;;;;;;;4.20;1.80;;;;;;;-148.88;93.48;-17125.47;5019182;28;20081;-85
2023/09/20 00:15:11;;;;;;;5.68;1.65;;;;;;;-148.88;93.51;-17125.47;5036192;28;20021;-85
2023/09/20 00:17:37;;;;;;;4.05;1.90;;;;;;;-148.88;94.18;-17125.47;5036607;28;20029;-85
2023/09/20 00:20:06;;;;;;;5.00;1.80;;;;;;;-148.88;94.10;-17125.47;5019440;28;20021;-86
2023/09/20 00:22:31;;;;;;;5.10;1.73;;;;;;;-148.88;93.65;-17125.47;5018487;28;20034;-86
2023/09/20 00:24:58;;;;;;;6.35;2.10;;;;;;;-148.88;94.24;-17125.47;5035796;28;20044;-86
2023/09/20 00:27:24;;;;;;;4.20;1.73;;;;;;;-148.88;94.62;-17125.47;5035880;28;20081;-87
2023/09/20 00:29:49;;;;;;;5.63;1.85;;;;;;;-148.88;93.99;-17125.47;5018328;28;20030;-86
2023/09/20 00:32:17;;;;;;;6.22;1.85;;;;;;;-148.88;94.72;-17125.47;5035687;28;20109;-85
2023/09/20 00:34:43;;;;;;;7.65;2.17;;;;;;;-148.88;95.86;-17125.47;5017931;28;20128;-85
2023/09/20 00:37:08;;;;;;;9.15;2.28;;;;;;;-148.88;95.91;-17125.47;5018068;28;20129;-87
2023/09/20 00:39:36;;;;;;;5.60;1.67;;;;;;;-148.88;94.56;-17125.47;5018048;28;20067;-86
2023/09/20 00:42:02;;;;;;;3.90;1.70;;;;;;;-148.88;95.26;-17125.47;5018339;28;20401;-85
2023/09/20 00:44:27;;;;;;;5.18;2.00;;;;;;;-148.88;94.78;-17125.47;5020011;28;20025;-86
2023/09/20 00:46:54;;;;;;;3.70;1.98;;;;;;;-148.88;94.84;-17125.47;5038000;28;20036;-85
2023/09/20 00:49:20;;;;;;;7.60;2.10;;;;;;;-148.88;95.39;-17125.47;5018391;28;20436;-86
2023/09/20 00:51:47;;;;;;;5.45;2.00;;;;;;;-148.88;96.25;-17125.47;5017970;28;20059;-87
2023/09/20 00:54:15;;;;;;;4.75;1.98;;;;;;;-148.88;95.11;-17125.47;5019250;28;20036;-87
2023/09/20 00:56:41;;;;;;;5.45;1.92;;;;;;;-148.88;95.19;-17125.47;5018910;28;20154;-87
2023/09/20 00:59:07;;;;;;;6.43;1.90;;;;;;;-148.88;94.46;-17125.47;5017830;28;20072;-87
2023/09/20 01:01:39;;;;;;;6.68;1.80;;;;;;;-148.88;96.03;-17125.47;5018313;28;20029;-87
2023/09/20 01:04:08;;;;;;;5.15;1.70;;;;;;;-148.88;96.45;-17125.47;5035307;28;20476;-86
2023/09/20 01:06:34;;;;;;;6.90;1.75;;;;;;;-148.88;96.83;-17125.47;5035118;28;20108;-87
2023/09/20 01:08:59;;;;;;;8.35;2.17;;;;;;;-148.88;96.96;-17125.47;5017581;28;20045;-86
2023/09/20 01:11:26;;;;;;;6.82;2.10;;;;;;;-148.88;96.68;-17125.47;5035422;28;20401;-86
2023/09/20 01:13:54;;;;;;;6.35;2.20;;;;;;;-148.88;96.81;-17125.47;5035532;28;20481;-87
2023/09/20 01:16:20;;;;;;;7.13;1.98;;;;;;;-148.88;96.88;-17125.47;5035610;28;20032;-86
2023/09/20 01:18:51;;;;;;;8.20;2.03;;;;;;;-148.88;97.21;-17125.47;5035439;28;20047;-86
2023/09/20 01:21:17;;;;;;;7.45;1.90;;;;;;;-148.88;96.54;-17125.47;5017490;28;20061;-86
2023/09/20 01:23:42;;;;;;;4.45;2.10;;;;;;;-148.88;96.37;-17125.47;5017711;28;20032;-87
2023/09/20 01:26:11;;;;;;;6.65;1.85;;;;;;;-148.88;96.69;-17125.47;5017432;28;20025;-86
2023/09/20 01:28:37;;;;;;;6.72;2.08;;;;;;;-148.88;96.82;-17125.47;5017257;28;20025;-87
2023/09/20 01:31:05;;;;;;;4.93;1.88;;;;;;;-148.88;96.70;-17125.47;5017798;28;20106;-86
2023/09/20 01:33:31;;;;;;;5.18;2.20;;;;;;;-148.88;97.63;-17125.47;5035684;28;20025;-89
2023/09/20 01:35:58;;;;;;;6.15;2.00;;;;;;;-148.88;97.26;-17125.47;5018012;28;20416;-87
2023/09/20 01:38:26;;;;;;;6.05;1.92;;;;;;;-148.88;97.09;-17125.47;5018121;28;20097;-86
2023/09/20 01:40:55;;;;;;;7.03;2.28;;;;;;;-148.88;97.27;-17125.47;5017676;28;20108;-86
2023/09/20 01:43:22;;;;;;;5.78;1.88;;;;;;;-148.88;97.68;-17125.47;5017743;28;20112;-86
2023/09/20 01:45:47;;;;;;;4.95;2.22;;;;;;;-148.88;97.93;-17125.47;5034776;28;20029;-88
2023/09/20 01:48:13;;;;;;;5.18;1.95;;;;;;;-148.88;97.20;-17125.47;5035207;28;20037;-87
2023/09/20 01:50:41;;;;;;;6.07;2.03;;;;;;;-148.88;97.56;-17125.47;5016663;28;20014;-87
2023/09/20 01:53:10;;;;;;;6.57;2.05;;;;;;;-148.88;98.31;-17125.47;5017350;28;20026;-88
2023/09/20 01:55:42;;;;;;;5.85;2.30;;;;;;;-148.88;98.04;-17125.47;5016623;28;20037;-86
2023/09/20 01:58:07;;;;;;;4.25;2.00;;;;;;;-148.88;97.74;-17125.47;5034488;28;20132;-85
2023/09/20 02:00:37;;;;;;;7.57;2.15;;;;;;;-148.88;98.58;-17125.47;5034744;28;20056;-86
2023/09/20 02:03:06;;;;;;;6.15;1.92;;;;;;;-148.88;99.13;-17125.47;5034445;28;20033;-86
2023/09/20 02:05:33;;;;;;;8.45;2.28;;;;;;;-148.88;99.13;-17125.47;5016584;28;20032;-86
2023/09/20 02:07:59;;;;;;;5.80;1.95;;;;;;;-148.88;98.86;-17125.47;5016200;28;20136;-88
2023/09/20 02:10:24;;;;;;;6.97;2.00;;;;;;;-148.88;99.14;-17125.47;5017139;28;20077;-88
2023/09/20 02:12:53;;;;;;;7.13;2.15;;;;;;;-148.88;99.18;-17125.47;5034484;28;20052;-86
2023/09/20 02:15:19;;;;;;;6.18;2.30;;;;;;;-148.88;99.38;-17125.47;5033842;28;20026;-86
2023/09/20 02:17:45;;;;;;;7.57;2.35;;;;;;;-148.88;99.43;-17125.47;5033951;28;20052;-86
2023/09/20 02:20:12;;;;;;;8.35;2.38;;;;;;;-148.88;100.00;-17125.47;5016290;28;20029;-86
2023/09/20 02:22:39;;;;;;;4.95;1.90;;;;;;;-148.88;99.40;-17125.47;5017040;28;20034;-86
2023/09/20 02:25:12;;;;;;;9.20;2.47;;;;;;;-148.88;99.21;-17125.47;5016064;28;20026;-86
2023/09/20 02:27:39;;;;;;;5.72;2.30;;;;;;;-148.88;99.74;-17125.47;5033694;28;20028;-85
2023/09/20 02:30:06;;;;;;;8.32;2.28;;;;;;;-148.88;99.86;-17125.47;5016453;28;20026;-85
2023/09/20 02:32:32;;;;;;;8.18;2.00;;;;;;;-148.88;99.75;-17125.47;5016012;28;20025;-86
2023/09/20 02:34:59;;;;;;;7.53;2.03;;;;;;;-148.88;99.91;-17125.47;5015769;28;20021;-86
2023/09/20 02:37:25;;;;;;;5.13;2.08;;;;;;;-148.88;100.00;-17125.47;5016189;28;20110;-85
2023/09/20 02:39:50;;;;;;;6.25;2.00;;;;;;;-148.88;99.90;-17125.47;5016044;28;20488;-87
2023/09/20 02:42:17;;;;;;;7.13;2.38;;;;;;;-148.88;100.00;-17125.47;5016310;28;20076;-87
2023/09/20 02:44:45;;;;;;;5.38;2.03;;;;;;;-148.88;100.00;-17125.47;5016684;28;20167;-87
2023/09/20 02:47:10;;;;;;;6.57;2.60;;;;;;;-148.88;100.00;-17125.47;5016302;28;20431;-85
2023/09/20 02:49:36;;;;;;;5.47;2.00;;;;;;;-148.88;100.00;-17125.47;5016721;28;20474;-86
2023/09/20 02:52:03;;;;;;;6.65;2.30;;;;;;;-148.88;100.00;-17125.47;5016105;28;20022;-86
2023/09/20 02:54:28;;;;;;;6.45;2.30;;;;;;;-148.88;100.00;-17125.47;5015744;28;20405;-86
2023/09/20 02:56:53;;;;;;;5.53;1.92;;;;;;;-148.88;100.00;-17125.47;5015699;28;20048;-86
2023/09/20 02:59:21;;;;;;;5.13;2.10;;;;;;;-148.88;100.00;-17125.47;5033398;28;20018;-89
2023/09/20 03:01:49;;;;;;;6.32;2.10;;;;;;;-148.88;100.00;-17125.47;5034685;28;20025;-85
2023/09/20 03:04:24;;;;;;;6.13;2.33;;;;;;;-148.88;100.00;-17125.47;5037704;28;20104;-86
2023/09/20 03:06:50;;;;;;;7.22;2.40;;;;;;;-148.88;100.00;-17125.47;5018398;28;20030;-88
2023/09/20 03:09:32;;;;;;;8.23;2.30;;;;;;;-148.88;100.00;-17125.47;5019618;28;20032;-86
2023/09/20 03:11:58;;;;;;;6.53;2.65;;;;;;;-148.88;100.00;-17125.47;5019620;28;20025;-86
2023/09/20 03:14:23;;;;;;;9.25;2.70;;;;;;;-148.88;100.00;-17125.47;5020355;28;20108;-87
2023/09/20 03:16:49;;;;;;;6.50;2.35;;;;;;;-148.88;100.00;-17125.47;5019554;28;20031;-88
2023/09/20 03:19:14;;;;;;;5.82;2.28;;;;;;;-148.88;100.00;-17125.47;5019411;28;20022;-86
2023/09/20 03:21:41;;;;;;;6.57;2.30;;;;;;;-148.88;100.00;-17125.47;5019988;28;20029;-85
2023/09/20 03:24:07;;;;;;;7.38;2.42;;;;;;;-148.88;100.00;-17125.47;5021072;28;20033;-85
2023/09/20 03:26:35;;;;;;;8.10;2.70;;;;;;;-148.88;100.00;-17125.47;5022638;28;20022;-85
2023/09/20 03:29:03;;;;;;;5.40;2.20;;;;;;;-148.88;100.00;-17125.47;5022286;28;20048;-87
2023/09/20 03:31:32;;;;;;;5.90;2.20;;;;;;;-148.88;100.00;-17125.47;5019294;28;20025;-87
2023/09/20 03:34:01;;;;;;;6.78;2.20;;;;;;;-148.88;100.00;-17125.47;5019795;28;20439;-85
2023/09/20 03:36:40;;;;;;;;;;;;;;;;;;;;;
2023/09/20 03:39:06;;;;;;;4.90;2.08;;;;;;;-148.88;100.00;-17125.47;5037560;28;20080;-83
2023/09/20 03:41:31;;;;;;;6.38;2.38;;;;;;;-148.88;100.00;-17125.47;5037372;28;20101;-86
2023/09/20 03:43:57;;;;;;;7.32;2.30;;;;;;;-148.88;100.00;-17125.47;5019305;28;20033;-85
2023/09/20 03:46:22;;;;;;;8.27;2.33;;;;;;;-148.88;100.00;-17125.47;5018829;28;20036;-86
2023/09/20 03:52:09;;;;;;;4.53;2.00;;;;;;;-148.88;100.00;-17125.47;5037987;28;20476;-87
2023/09/20 03:54:34;;;;;;;6.90;2.25;;;;;;;-148.88;100.00;-17125.47;5019249;28;20030;-86
2023/09/20 03:57:00;;;;;;;7.07;2.20;;;;;;;-148.88;100.00;-17125.47;5020007;28;20029;-86
2023/09/20 03:59:26;;;;;;;6.90;2.30;;;;;;;-148.88;100.00;-17125.47;5019501;28;20024;-86
2023/09/20 04:01:55;;;;;;;6.40;2.40;;;;;;;-148.88;100.00;-17125.47;5037655;28;20028;-86
2023/09/20 04:04:48;;;;;;;5.65;2.58;;;;;;;-148.88;100.00;-17125.47;5038280;28;20045;-89
2023/09/20 04:07:13;;;;;;;9.02;2.35;;;;;;;-148.88;100.00;-17125.47;5020017;28;20022;-85
2023/09/20 04:09:39;;;;;;;7.35;2.53;;;;;;;-148.88;100.00;-17125.47;5019995;28;20028;-85
2023/09/20 04:12:34;;;;;;;6.38;2.30;;;;;;;-148.88;100.00;-17125.47;5019335;28;20401;-86
2023/09/20 04:15:17;;;;;;;8.23;2.72;;;;;;;-148.88;100.00;-17125.47;5018841;28;20026;-85
2023/09/20 04:17:43;;;;;;;6.20;2.58;;;;;;;-148.88;100.00;-17125.47;5017703;28;20052;-87
2023/09/20 04:20:20;;;;;;;8.20;2.60;;;;;;;-148.88;100.00;-17125.47;5036931;28;20022;-85
2023/09/20 04:22:46;;;;;;;8.60;2.42;;;;;;;-148.88;100.00;-17125.47;5019653;28;20099;-86
2023/09/20 04:25:25;;;;;;;9.63;2.95;;;;;;;-148.88;100.00;-17125.47;5019286;28;20168;-86
2023/09/20 04:27:53;;;;;;;6.20;2.67;;;;;;;-148.88;100.00;-17125.47;5019872;28;20063;-86
2023/09/20 04:30:19;;;;;;;6.88;2.33;;;;;;;-148.88;100.00;-17125.47;5018132;28;20057;-85
2023/09/20 04:32:44;;;;;;;6.82;2.50;;;;;;;-148.88;100.00;-17125.47;5018609;28;20041;-85
2023/09/20 04:35:10;;;;;;;8.52;2.30;;;;;;;-148.88;100.00;-17125.47;5017747;28;20501;-86
2023/09/20 04:37:35;;;;;;;8.15;2.75;;;;;;;-148.88;100.00;-17125.47;5035785;28;20417;-86
2023/09/20 04:40:01;;;;;;;10.05;2.50;;;;;;;-148.88;100.00;-17125.47;5036080;28;20021;-86
2023/09/20 04:42:33;;;;;;;6.30;2.45;;;;;;;-148.88;100.00;-17125.47;5020478;28;20033;-87
2023/09/20 04:44:59;;;;;;;5.47;2.10;;;;;;;-148.88;100.00;-17125.47;5017774;28;20452;-86
2023/09/20 04:47:24;;;;;;;7.18;2.30;;;;;;;-148.88;100.00;-17125.47;5017680;28;20053;-86
2023/09/20 04:49:50;;;;;;;7.05;2.75;;;;;;;-148.88;100.00;-17125.47;5017637;28;20389;-86
2023/09/20 04:52:16;;;;;;;6.63;2.45;;;;;;;-148.88;100.00;-17125.47;5017846;28;20036;-87
2023/09/20 04:54:43;;;;;;;7.90;2.53;;;;;;;-148.88;100.00;-17125.47;5017532;28;20025;-87
2023/09/20 04:57:12;;;;;;;6.50;2.67;;;;;;;-148.88;100.00;-17125.47;5035011;28;20029;-87
2023/09/20 04:59:39;;;;;;;8.38;2.03;;;;;;;-148.88;100.00;-17125.47;5017562;28;20029;-87
2023/09/20 05:02:05;;;;;;;5.22;2.70;;;;;;;-148.88;100.00;-17125.47;5017619;28;20048;-88
2023/09/20 05:04:34;;;;;;;5.32;2.17;;;;;;;-148.88;100.00;-17125.47;5017088;28;20029;-86
2023/09/20 05:07:10;;;;;;;7.18;2.45;;;;;;;-148.88;100.00;-17125.47;5017661;28;20561;-87
2023/09/20 05:09:36;;;;;;;8.10;2.80;;;;;;;-148.88;100.00;-17125.47;5017486;28;20030;-86
2023/09/20 05:12:02;;;;;;;8.25;2.85;;;;;;;-148.88;100.00;-17125.47;5017683;28;20484;-86
2023/09/20 05:14:29;;;;;;;5.90;2.28;;;;;;;-148.88;100.00;-17125.47;5035745;28;20033;-87
2023/09/20 05:16:54;;;;;;;7.65;2.55;;;;;;;-148.88;100.00;-17125.47;5018370;28;20021;-86
2023/09/20 05:19:22;;;;;;;8.07;2.72;;;;;;;-148.88;100.00;-17125.47;5018011;28;20025;-86
2023/09/20 05:21:47;;;;;;;6.70;2.33;;;;;;;-148.88;100.00;-17125.47;5017639;28;20037;-87
2023/09/20 05:24:13;;;;;;;6.38;2.58;;;;;;;-148.88;100.00;-17125.47;5017596;28;20021;-86
2023/09/20 05:26:41;;;;;;;7.63;2.72;;;;;;;-148.88;100.00;-17125.47;5016895;28;20489;-86
2023/09/20 05:29:06;;;;;;;6.00;2.38;;;;;;;-148.88;100.00;-17125.47;5017309;28;20440;-85
2023/09/20 05:31:33;;;;;;;6.28;2.22;;;;;;;-148.88;100.00;-17125.47;5017578;28;20547;-86
2023/09/20 05:33:58;;;;;;;9.05;2.45;;;;;;;-148.88;100.00;-17125.47;5016836;28;20108;-85
2023/09/20 05:36:27;;;;;;;5.82;2.40;;;;;;;-148.88;100.00;-17125.47;5034602;28;20111;-86
2023/09/20 05:38:53;;;;;;;7.65;2.15;;;;;;;-148.88;100.00;-17125.47;5016852;28;20022;-86
2023/09/20 05:41:19;;;;;;;5.25;2.17;;;;;;;-148.88;100.00;-17125.47;5016899;28;20052;-86
2023/09/20 05:43:44;;;;;;;5.20;2.10;;;;;;;-148.88;100.00;-17125.47;5016733;28;20409;-87
2023/09/20 05:46:12;;;;;;;7.80;2.47;;;;;;;-148.88;100.00;-17125.47;5034173;28;20034;-85
2023/09/20 05:48:39;;;;;;;5.53;2.33;;;;;;;-148.88;100.00;-17125.47;5017033;28;20467;-86
2023/09/20 05:51:05;;;;;;;6.93;2.47;;;;;;;-148.88;100.00;-17125.47;5016622;28;20052;-87
2023/09/20 05:53:30;;;;;;;7.15;2.50;;;;;;;-148.88;100.00;-17125.47;5034644;28;20485;-87
2023/09/20 05:55:55;;;;;;;5.55;2.17;;;;;;;-148.88;100.00;-17125.47;5016970;28;20079;-87
2023/09/20 05:58:21;;;;;;;4.65;2.15;;;;;;;-148.88;100.00;-17125.47;5035248;28;20021;-86
2023/09/20 06:00:48;;;;;;;5.57;2.70;;;;;;;-148.88;100.00;-17125.47;5035034;28;20018;-86
2023/09/20 06:03:13;;;;;;;7.13;2.80;;;;;;;-148.88;100.00;-17125.47;5016388;28;20034;-84
2023/09/20 06:05:39;;;;;;;6.15;2.60;;;;;;;-148.88;100.00;-17125.47;5033773;28;20032;-84
2023/09/20 06:08:07;;;;;;;4.85;2.25;;;;;;;-148.88;100.00;-17125.47;5034112;28;20017;-84
2023/09/20 06:10:33;;;;;;;7.80;2.78;;;;;;;-148.88;100.00;-17125.47;5034350;28;20021;-84
2023/09/20 06:12:59;;;;;;;5.57;2.50;;;;;;;-148.88;100.00;-17125.47;5034183;28;20382;-84
2023/09/20 06:15:24;;;;;;;6.82;2.13;;;;;;;-148.88;100.00;-17125.47;5033871;28;20033;-85
2023/09/20 06:17:50;;;;;;;6.43;2.33;;;;;;;-148.88;100.00;-17125.47;5033807;28;20036;-84
2023/09/20 06:20:19;;;;;;;5.70;2.33;;;;;;;-148.88;100.00;-17125.47;5033961;28;20021;-85
2023/09/20 06:22:52;;;;;;;5.70;2.55;;;;;;;-148.88;100.00;-17125.47;5016436;28;20033;-85
2023/09/20 06:25:20;;;;;;;7.15;2.70;;;;;;;-148.88;100.00;-17125.47;5016489;28;20029;-85
2023/09/20 06:27:46;;;;;;;6.70;2.40;;;;;;;-148.88;100.00;-17125.47;5016534;28;20033;-85
2023/09/20 06:30:17;;;;;;;8.13;2.38;;;;;;;-148.88;100.00;-17125.47;5016370;28;20017;-85
2023/09/20 06:32:44;;;;;;;5.60;2.55;;;;;;;-148.88;100.00;-17125.47;5017565;28;20123;-85
2023/09/20 06:35:10;;;;;;;4.53;2.33;;;;;;;-148.88;100.00;-17125.47;5034811;28;20021;-85
2023/09/20 06:37:38;;;;;;;5.28;2.38;;;;;;;-148.88;100.00;-17125.47;5016141;28;20032;-85
2023/09/20 06:40:15;;;;;;;8.30;2.42;;;;;;;-148.88;100.00;-17125.47;5033480;28;20390;-86
2023/09/20 06:42:41;;;;;;;4.13;2.33;;;;;;;-148.88;100.00;-17125.47;5016251;28;20032;-89
2023/09/20 06:45:08;;;;;;;6.20;2.50;;;;;;;-148.88;100.00;-17125.47;5015562;28;20112;-89
2023/09/20 06:47:34;;;;;;;7.65;2.20;;;;;;;-148.88;100.00;-17125.47;5015250;28;20033;-87
2023/09/20 06:50:02;;;;;;;4.15;2.20;;;;;;;-148.88;100.00;-17125.47;5016362;28;20048;-86
2023/09/20 06:52:28;;;;;;;5.78;2.67;;;;;;;-148.88;100.00;-17125.47;5015619;28;20494;-85
2023/09/20 06:54:53;;;;;;;6.35;2.35;;;;;;;-148.88;100.00;-17125.47;5033522;28;20049;-86
2023/09/20 06:57:19;;;;;;;5.43;2.25;;;;;;;-148.88;100.00;-17125.47;5015868;28;20465;-86
2023/09/20 06:59:45;;;;;;;6.50;2.72;;;;;;;-148.88;100.00;-17125.47;5015715;28;20056;-86
2023/09/20 07:02:14;;;;;;;6.60;2.20;;;;;;;-148.88;100.00;-17125.47;5015914;28;20063;-85
2023/09/20 07:04:40;;;;;;;6.10;2.40;;;;;;;-148.88;100.00;-17125.47;5015841;28;20024;-86
2023/09/20 07:07:08;;;;;;;6.90;2.40;;;;;;;-148.88;100.00;-17125.47;5033791;28;20373;-87
2023/09/20 07:09:34;;;;;;;7.53;2.42;;;;;;;-148.88;100.00;-17125.47;5034024;28;20101;-88
2023/09/20 07:12:03;;;;;;;5.43;2.38;;;;;;;-148.88;100.00;-17125.47;5016251;28;20097;-86
2023/09/20 07:14:31;;;;;;;7.55;2.38;;;;;;;-148.88;100.00;-17125.47;5016496;28;20033;-87
2023/09/20 07:16:57;;;;;;;5.57;2.30;;;;;;;-148.88;100.00;-17125.47;5033531;28;20032;-87
2023/09/20 07:19:26;;;;;;;5.78;2.47;;;;;;;-148.88;100.00;-17125.47;5015847;28;20021;-87
2023/09/20 07:21:52;;;;;;;7.15;2.25;;;;;;;-148.88;100.00;-17125.47;5015012;28;20030;-87
2023/09/20 07:24:20;;;;;;;6.53;2.50;;;;;;;-148.88;100.00;-17125.47;5015229;28;20029;-86
2023/09/20 07:26:45;;;;;;;4.80;2.50;;;;;;;-148.88;100.00;-17125.47;5033121;28;20056;-88
2023/09/20 07:29:14;;;;;;;6.65;2.67;;;;;;;-148.88;100.00;-17125.47;5032985;28;20026;-83
2023/09/20 07:31:40;;;;;;;6.75;2.33;;;;;;;-148.88;100.00;-17125.47;5015412;28;20515;-86
2023/09/20 07:34:06;;;;;;;4.40;2.40;;;;;;;-148.88;100.00;-17125.47;5015621;28;20033;-86
2023/09/20 07:36:36;;;;;;;4.72;2.10;;;;;;;-148.88;100.00;-17125.47;5015261;28;20021;-87
2023/09/20 07:39:05;;;;;;;3.83;2.20;;;;;;;-148.88;100.00;-17125.47;5015254;28;20370;-85
2023/09/20 07:41:30;;;;;;;5.57;1.92;;;;;;;-148.88;100.00;-17125.47;5015239;28;20124;-86
2023/09/20 07:43:56;;;;;;;7.60;2.60;;;;;;;-148.88;100.00;-17125.47;5015243;28;20104;-83
2023/09/20 07:46:23;;;;;;;3.97;2.00;;;;;;;-148.88;100.00;-17125.47;5015607;28;20033;-85
2023/09/20 07:48:50;;;;;;;6.28;2.22;;;;;;;-148.88;100.00;-17125.47;5016916;28;20079;-87
2023/09/20 07:51:24;;;;;;;5.20;1.98;;;;;;;-148.88;100.00;-17125.47;5019808;28;20037;-88
2023/09/20 07:53:53;;;;;;;5.50;2.08;;;;;;;-148.88;100.00;-17125.47;5018796;28;20061;-84
2023/09/20 07:56:22;;;;;;;5.00;2.10;;;;;;;-148.88;100.00;-17125.47;5036848;28;20033;-81
2023/09/20 07:58:48;;;;;;;7.18;2.22;;;;;;;-148.88;100.00;-17125.47;5036575;28;20362;-81
2023/09/20 08:01:24;;;;;;;4.53;1.98;;;;;;;-148.88;100.00;-17125.47;5036823;28;20504;-81
2023/09/20 08:03:53;;;;;;;7.43;2.30;;;;;;;-148.88;100.00;-17125.47;5018650;28;20052;-82
2023/09/20 08:06:22;;;;;;;5.63;2.13;;;;;;;-148.88;100.00;-17125.47;5018923;28;20088;-83
2023/09/20 08:08:48;;;;;;;6.82;2.13;;;;;;;-148.88;100.00;-17125.47;5018349;28;20060;-84
2023/09/20 08:11:13;;;;;;;6.93;2.22;;;;;;;-148.88;100.00;-17125.47;5035821;28;20056;-84
2023/09/20 08:13:39;;;;;;;4.38;2.10;;;;;;;-148.88;100.00;-17125.47;5018040;28;20485;-85
2023/09/20 08:16:09;;;;;;;4.45;1.92;;;;;;;-148.88;100.00;-17125.47;5017718;28;20463;-84
2023/09/20 08:21:19;;;;;;;6.70;2.20;;;;;;;-148.88;99.21;-17125.47;5036748;28;20397;-84
2023/09/20 09:00:27;;;;;;;6.35;2.25;;;;;;;-148.88;94.84;-17125.47;5035360;28;20032;-85
2023/09/20 09:02:58;;;;;;;8.95;2.50;;;;;;;-148.88;93.28;-17125.47;5035614;28;20037;-85
2023/09/20 09:05:27;;;;;;;4.63;1.80;;;;;;;-148.88;92.87;-17125.47;5036369;28;20099;-84
2023/09/20 09:07:53;;;;;;;6.97;2.42;;;;;;;-148.88;92.95;-17125.47;5036465;28;20026;-84
2023/09/20 09:10:18;;;;;;;5.97;2.30;;;;;;;-148.88;93.77;-17125.47;5035124;28;20079;-83
2023/09/20 09:12:44;;;;;;;5.53;2.67;;;;;;;-148.88;92.73;-17125.47;5035539;28;20029;-83
2023/09/20 09:15:21;;;;;;;7.50;2.40;;;;;;;-148.88;93.35;-17125.47;5034905;28;20059;-84
2023/09/20 09:17:47;;;;;;;5.95;2.03;;;;;;;-148.88;93.13;-17125.47;5035101;28;20029;-84
2023/09/20 09:20:14;;;;;;;4.80;2.00;;;;;;;-148.88;93.02;-17125.47;5034577;28;20029;-84
2023/09/20 09:22:41;;;;;;;5.82;1.90;;;;;;;-148.88;92.42;-17125.47;5034597;28;20128;-84
2023/09/20 09:25:20;;;;;;;5.18;1.90;;;;;;;-148.88;91.79;-17125.47;5017014;28;20323;-85
2023/09/20 09:27:45;;;;;;;5.78;2.20;;;;;;;-148.88;93.28;-17125.47;5016833;28;20018;-80
2023/09/20 09:30:14;;;;;;;6.65;2.10;;;;;;;-148.88;90.97;-17125.47;5016924;28;20408;-81
2023/09/20 09:32:42;;;;;;;3.53;1.75;;;;;;;-148.88;90.60;-17125.47;5017696;28;20025;-85
2023/09/20 09:35:08;;;;;;;4.85;2.00;;;;;;;-148.88;89.04;-17125.47;5017215;28;20106;-84
2023/09/20 09:37:35;;;;;;;5.57;1.80;;;;;;;-148.88;90.62;-17125.47;5035021;28;20052;-83
2023/09/20 09:40:06;;;;;;;3.78;2.00;;;;;;;-148.88;86.56;-17125.47;5017168;28;20505;-84
2023/09/20 09:42:32;;;;;;;5.00;1.95;;;;;;;-148.88;87.38;-17125.47;5017108;28;20052;-84
2023/09/20 09:45:04;;;;;;;5.95;2.10;;;;;;;-148.88;85.78;-17125.47;5017192;28;20052;-85
2023/09/20 09:47:30;;;;;;;4.97;1.88;;;;;;;-148.88;83.97;-17125.47;5034272;28;20029;-83
2023/09/20 09:49:55;;;;;;;6.85;2.28;;;;;;;-148.88;85.86;-17125.47;5016309;28;20014;-85
2023/09/20 09:52:25;;;;;;;3.92;1.70;;;;;;;-148.88;82.76;-17125.47;5016279;28;20064;-84
2023/09/20 09:54:54;;;;;;;3.95;1.80;;;;;;;-148.88;82.35;-17125.47;5016415;28;20032;-84
2023/09/20 09:57:20;;;;;;;4.78;1.70;;;;;;;-148.88;83.94;-17125.47;5016165;28;20037;-85
2023/09/20 09:59:51;;;;;;;4.70;1.80;;;;;;;-148.88;83.77;-17125.47;5016505;28;20031;-85
2023/09/20 10:02:23;;;;;;;3.90;1.63;;;;;;;-148.88;81.26;-17125.47;5016317;28;20029;-84
2023/09/20 10:05:01;;;;;;;3.63;1.70;;;;;;;-148.88;81.55;-17125.47;5016361;28;20053;-84
2023/09/20 10:07:48;;;;;;;4.35;2.13;;;;;;;-148.88;80.57;-17125.47;5016339;28;20021;-84
2023/09/20 10:10:13;;;;;;;3.55;1.70;;;;;;;-148.88;79.69;-17125.47;5016327;28;20021;-84
2023/09/20 10:12:40;;;;;;;6.57;1.90;;;;;;;-148.88;79.38;-17125.47;5015749;28;20040;-85
2023/09/20 10:15:07;;;;;;;3.88;1.95;;;;;;;-148.88;81.83;-17125.47;5016316;28;20022;-85
2023/09/20 10:17:34;;;;;;;5.32;1.65;;;;;;;-148.88;76.73;-17125.47;5016482;28;20426;-84
2023/09/20 10:20:07;;;;;;;4.95;1.90;;;;;;;-148.88;77.13;-17125.47;5016769;28;20109;-85
2023/09/20 10:22:36;;;;;;;5.30;1.90;;;;;;;-148.88;77.44;-17125.47;5018227;28;20048;-85
2023/09/20 10:25:01;;;;;;;3.33;1.73;;;;;;;-148.88;78.06;-17125.47;5016223;28;20493;-85
2023/09/20 10:27:31;;;;;;;5.03;1.80;;;;;;;-148.88;78.38;-17125.47;5033591;28;20115;-83
2023/09/20 10:30:09;;;;;;;5.57;1.58;;;;;;;-148.88;77.37;-17125.47;5033677;28;20360;-84
2023/09/20 10:32:47;;;;;;;4.78;2.00;;;;;;;-148.88;75.25;-17125.47;5015756;28;20031;-84
2023/09/20 10:35:33;;;;;;;4.85;1.80;;;;;;;-148.88;75.75;-17125.47;5015942;28;20017;-83
2023/09/20 10:38:23;;;;;;;3.78;1.50;;;;;;;-148.88;71.23;-17125.47;5016630;28;20021;-85
2023/09/20 10:40:49;;;;;;;4.00;1.83;;;;;;;-148.88;72.84;-17125.47;5016174;28;20109;-84
2023/09/20 10:43:19;;;;;;;5.28;2.08;;;;;;;-148.88;73.88;-17125.47;5016535;28;20464;-84
2023/09/20 10:45:54;;;;;;;4.07;1.83;;;;;;;-148.88;74.77;-17125.47;5015904;28;21469;-84
2023/09/20 10:48:24;;;;;;;4.15;1.70;;;;;;;-148.88;74.71;-17125.47;5016238;28;20037;-84
2023/09/20 10:50:52;;;;;;;4.22;1.92;;;;;;;-148.88;75.85;-17125.47;5033457;28;20490;-84
2023/09/20 10:53:19;;;;;;;4.55;1.98;;;;;;;-148.88;74.81;-17125.47;5015662;28;20021;-85
2023/09/20 10:55:49;;;;;;;3.28;1.60;;;;;;;-148.88;76.84;-17125.47;5015460;28;21701;-85
2023/09/20 10:58:18;;;;;;;3.42;1.75;;;;;;;-148.88;76.82;-17125.47;5015890;28;20041;-83
2023/09/20 11:00:44;;;;;;;3.92;1.52;;;;;;;-148.88;78.35;-17125.47;5016023;28;20028;-85
2023/09/20 11:03:13;;;;;;;6.47;2.03;;;;;;;-148.88;79.68;-17125.47;5015856;28;20493;-82
2023/09/20 11:05:39;;;;;;;3.22;1.48;;;;;;;-148.88;78.20;-17125.47;5015766;28;20125;-85
2023/09/20 11:08:11;;;;;;;3.40;1.70;;;;;;;-148.88;78.70;-17125.47;5015636;28;20057;-84
2023/09/20 11:10:40;;;;;;;4.20;1.45;;;;;;;-148.88;78.99;-17125.47;5015781;28;20044;-85
2023/09/20 11:13:09;;;;;;;4.80;1.58;;;;;;;-148.88;81.29;-17125.47;5016285;28;20066;-85
2023/09/20 11:15:41;;;;;;;2.97;1.42;;;;;;;-148.88;80.87;-17125.47;5015658;28;20478;-83
2023/09/20 11:18:08;;;;;;;3.50;1.58;;;;;;;-148.88;80.07;-17125.47;5015954;28;20032;-85
2023/09/20 11:20:34;;;;;;;4.80;1.45;;;;;;;-148.88;80.99;-17125.47;5016114;28;20385;-85
2023/09/20 11:23:01;;;;;;;3.28;1.40;;;;;;;-148.88;81.14;-17125.47;5017182;28;20029;-83
2023/09/20 11:25:28;;;;;;;3.45;1.90;;;;;;;-148.88;79.76;-17125.47;5019422;28;20053;-83
2023/09/20 11:27:55;;;;;;;3.80;1.50;;;;;;;-148.88;79.14;-17125.47;5019460;28;20104;-86
2023/09/20 11:30:27;;;;;;;1.95;1.33;;;;;;;-148.88;79.25;-17125.47;5019370;28;20029;-85
2023/09/20 11:32:53;;;;;;;3.63;1.35;;;;;;;-148.88;79.29;-17125.47;5019132;28;20025;-84
2023/09/20 11:35:33;;;;;;;2.40;1.20;;;;;;;-148.88;79.96;-17125.47;5036993;28;20025;-83
2023/09/20 11:37:59;;;;;;;4.43;1.40;;;;;;;-148.88;77.91;-17125.47;5018903;28;20108;-87
2023/09/20 11:40:24;;;;;;;2.30;1.00;;;;;;;-148.88;76.72;-17125.47;5036964;28;20060;-87
2023/09/20 11:42:52;;;;;;;3.13;1.40;;;;;;;-148.88;76.73;-17125.47;5019022;28;20108;-88
2023/09/20 11:45:18;;;;;;;2.15;1.23;;;;;;;-148.88;76.51;-17125.47;5019172;28;20378;-87
2023/09/20 11:47:44;;;;;;;2.35;1.20;;;;;;;-148.88;77.61;-17125.47;5019357;28;20133;-86
2023/09/20 11:50:13;;;;;;;2.22;1.00;;;;;;;-148.88;79.32;-17125.47;5022398;28;20041;-85
2023/09/20 11:52:48;;;;;;;7.72;1.73;;;;;;;-148.88;77.87;-17125.47;5020115;28;20024;-84